Alton, Missouri
Current Conditions -  °F | °C
As of 12:53 AM on Sunday 21 Dec 2014 (Local Time) from KUNO Reporting Station
Overcast Overcast  
Wind Chill: 39°   Ceiling: 2200
Heat Index: 39°   Visibility: 8mi
Dew Point: 35°   Wind: 3mph
Humidity: 86%   Direction: 150°SSE
Pressure: 30.2"   Gusts: NA
Location:  36.69°N, 91.4°W
Report Text: KUNO 210653Z AUTO 15003KT 8SM OVC022 04/02 A3020 RMK AO2 SLP232 T00390017 $
Loading
Personal Weather Stations






























Interactive Weather Map New forecast layout! Learn more

10-Day Weather Forecast

Advertisements
Track Severe Weather on mobile